Terminal Aerodrome Forecast
Issued by NWS

Current Version | Previous Version | Graphics & Text | Print | Product List | Glossary Off
Versions: 1 2 3 4 5 6 7 8 9 10 11 12 13 14 15 16 17 18 19 20

467
FTUS41 KILN 311720
TAFLCK
TAF
KLCK 311720Z 3118/0118 02005KT P6SM FEW070 BKN250
     FM010000 05003KT P6SM SCT150 BKN200
     FM011300 14006KT P6SM BKN150=

USA.gov is the U.S. government's official web portal to all federal, state and local government web resources and services.